Time;durP1;ratioP1;P1;durP2;ratioP2;P2;SDS_P1;SDS_P2;PMS_P1;PMS_P2;Temp;Humidity;BMP_temperature;BMP_pressure;BME280_temperature;BME280_humidity;BME280_pressure;Samples;Min_cycle;Max_cycle;Signal;HPM_P1;HPM_P2
2021/01/16 00:00:48;;;;;;;15.17;9.70;;;3.10;99.90;;;;;;5007186;28;20913;-72
2021/01/16 00:03:15;;;;;;;14.40;10.10;;;3.20;99.90;;;;;;4992596;28;20459;-73
2021/01/16 00:05:42;;;;;;;12.53;9.97;;;3.20;99.90;;;;;;4992812;28;20909;-72
2021/01/16 00:08:13;;;;;;;21.03;12.80;;;3.10;99.90;;;;;;5003753;28;20499;-72
2021/01/16 00:10:44;;;;;;;15.00;11.23;;;3.10;99.90;;;;;;4997703;28;20408;-72
2021/01/16 00:13:14;;;;;;;15.37;11.33;;;3.10;99.90;;;;;;4999061;28;20407;-73
2021/01/16 00:15:40;;;;;;;14.90;10.80;;;3.10;99.90;;;;;;4999235;28;20389;-72
2021/01/16 00:18:07;;;;;;;15.00;11.50;;;3.10;99.90;;;;;;5014325;28;20408;-73
2021/01/16 00:20:35;;;;;;;17.27;11.57;;;3.10;99.90;;;;;;5014449;28;20511;-72
2021/01/16 00:23:00;;;;;;;15.80;10.10;;;3.10;99.90;;;;;;5000943;28;20420;-72
2021/01/16 00:25:26;;;;;;;17.77;11.20;;;3.10;99.90;;;;;;5010019;28;20450;-72
2021/01/16 00:27:53;;;;;;;14.67;9.27;;;3.00;99.90;;;;;;5010696;28;20172;-72
2021/01/16 00:30:20;;;;;;;14.27;11.00;;;3.00;99.90;;;;;;5005877;28;20466;-73
2021/01/16 00:32:46;;;;;;;15.90;10.40;;;3.00;99.90;;;;;;5026085;28;21219;-74
2021/01/16 00:35:15;;;;;;;19.97;11.73;;;3.00;99.90;;;;;;5001420;28;20432;-73
2021/01/16 00:37:43;;;;;;;16.43;10.97;;;3.10;99.90;;;;;;5010510;28;20415;-72
2021/01/16 00:40:14;;;;;;;18.00;10.70;;;3.00;99.90;;;;;;5016172;28;20434;-72
2021/01/16 00:42:42;;;;;;;17.00;10.87;;;3.00;99.90;;;;;;5004241;28;20769;-72
2021/01/16 00:45:09;;;;;;;20.77;10.03;;;3.10;99.90;;;;;;5012371;28;20465;-71
2021/01/16 00:47:39;;;;;;;14.37;10.07;;;3.10;99.90;;;;;;5002804;28;20462;-73
2021/01/16 00:50:07;;;;;;;17.90;10.50;;;3.10;99.90;;;;;;5003026;28;20462;-71
2021/01/16 00:52:33;;;;;;;14.10;10.50;;;3.10;99.90;;;;;;5002865;28;20970;-72
2021/01/16 00:54:59;;;;;;;13.03;10.40;;;3.10;99.90;;;;;;5033021;28;20442;-72
2021/01/16 00:57:28;;;;;;;17.23;11.20;;;3.10;99.90;;;;;;5004173;28;20258;-72
2021/01/16 00:59:55;;;;;;;19.07;11.40;;;3.10;99.90;;;;;;4999857;28;20419;-72
2021/01/16 01:02:22;;;;;;;16.80;10.63;;;3.10;99.90;;;;;;4999213;28;20924;-71
2021/01/16 01:04:48;;;;;;;19.03;10.67;;;3.10;99.90;;;;;;4998485;28;20545;-72
2021/01/16 01:07:13;;;;;;;15.13;10.07;;;3.10;99.90;;;;;;4998873;28;20458;-73
2021/01/16 01:09:41;;;;;;;14.17;9.90;;;3.10;99.90;;;;;;5003756;28;20422;-72
2021/01/16 01:12:07;;;;;;;14.50;11.50;;;3.10;99.90;;;;;;5033260;28;20179;-74
2021/01/16 01:14:34;;;;;;;18.73;10.43;;;3.10;99.90;;;;;;5033470;28;20430;-72
2021/01/16 01:16:59;;;;;;;16.80;11.73;;;3.10;99.90;;;;;;5018297;28;20916;-72
2021/01/16 01:19:25;;;;;;;15.50;10.07;;;3.10;99.90;;;;;;5012030;28;20430;-73
2021/01/16 01:21:51;;;;;;;15.90;11.50;;;3.10;99.90;;;;;;4996613;28;20186;-72
2021/01/16 01:24:16;;;;;;;17.43;10.73;;;3.10;99.90;;;;;;4995498;28;20258;-72
2021/01/16 01:26:42;;;;;;;15.60;10.97;;;3.10;99.90;;;;;;4997071;28;20180;-72
2021/01/16 01:29:08;;;;;;;16.77;10.80;;;3.10;99.90;;;;;;5005734;28;20185;-72
2021/01/16 01:31:36;;;;;;;12.80;8.53;;;3.10;99.90;;;;;;4995768;28;20415;-72
2021/01/16 01:34:02;;;;;;;19.93;9.87;;;3.10;99.90;;;;;;5003418;28;20243;-72
2021/01/16 01:36:28;;;;;;;18.70;9.70;;;3.10;99.90;;;;;;5014924;28;20884;-72
2021/01/16 01:38:53;;;;;;;12.90;10.50;;;3.10;99.90;;;;;;5014899;28;20438;-73
2021/01/16 01:41:19;;;;;;;17.93;10.90;;;3.10;99.90;;;;;;5014677;28;20564;-72
2021/01/16 01:43:44;;;;;;;13.87;9.40;;;3.10;99.90;;;;;;5002281;28;20690;-72
2021/01/16 01:46:10;;;;;;;14.63;9.83;;;3.10;99.90;;;;;;5000213;28;20251;-72
2021/01/16 01:48:36;;;;;;;14.23;10.00;;;3.10;99.90;;;;;;5029664;28;20182;-72
2021/01/16 01:51:02;;;;;;;18.80;10.60;;;3.10;99.90;;;;;;5014454;28;20415;-72
2021/01/16 01:53:31;;;;;;;12.90;9.57;;;3.10;99.90;;;;;;5006646;28;20199;-73
2021/01/16 01:56:01;;;;;;;17.53;9.20;;;3.10;99.90;;;;;;4995087;28;20275;-72
2021/01/16 01:58:29;;;;;;;13.60;9.70;;;3.10;99.90;;;;;;5025118;28;20445;-73
2021/01/16 02:00:55;;;;;;;16.93;10.67;;;3.10;99.90;;;;;;5026583;28;20929;-72
2021/01/16 02:03:23;;;;;;;18.17;12.27;;;3.10;99.90;;;;;;4994611;28;20451;-72
2021/01/16 02:05:56;;;;;;;15.73;10.43;;;3.10;99.90;;;;;;4994768;28;20415;-72
2021/01/16 02:08:23;;;;;;;15.60;9.57;;;3.00;99.90;;;;;;4995137;28;20466;-74
2021/01/16 02:10:49;;;;;;;14.27;9.67;;;3.10;99.90;;;;;;5005306;28;20809;-73
2021/01/16 02:13:14;;;;;;;13.83;8.33;;;3.10;99.90;;;;;;4996798;28;20439;-72
2021/01/16 02:16:09;;;;;;;13.87;9.23;;;3.10;99.90;;;;;;4994729;28;20405;-74
2021/01/16 02:18:46;;;;;;;20.73;10.60;;;3.10;99.90;;;;;;4995985;28;20179;-72
2021/01/16 02:21:22;;;;;;;17.20;10.53;;;3.10;99.90;;;;;;4994677;28;20420;-72
2021/01/16 02:24:07;;;;;;;16.30;10.63;;;3.10;99.90;;;;;;4998266;28;21016;-73
2021/01/16 02:26:51;;;;;;;15.60;9.77;;;3.10;99.90;;;;;;5002185;28;20420;-73
2021/01/16 02:29:17;;;;;;;16.60;9.00;;;3.10;99.90;;;;;;5009340;28;20433;-73
2021/01/16 02:31:52;;;;;;;19.03;10.10;;;3.10;99.90;;;;;;5020228;28;20416;-73
2021/01/16 02:34:20;;;;;;;22.87;10.70;;;3.10;99.90;;;;;;4994528;28;20868;-72
2021/01/16 02:37:05;;;;;;;14.20;9.77;;;3.10;99.90;;;;;;5025851;28;20578;-72
2021/01/16 02:39:58;;;;;;;21.50;8.70;;;3.10;99.90;;;;;;5011828;28;20437;-73
2021/01/16 02:43:11;;;;;;;19.33;10.53;;;3.10;99.90;;;;;;4993933;28;20414;-73
2021/01/16 02:45:49;;;;;;;12.70;9.30;;;3.10;99.90;;;;;;4999717;28;20422;-72
2021/01/16 02:48:21;;;;;;;11.97;7.63;;;3.10;99.90;;;;;;5001772;28;20562;-72
2021/01/16 02:50:54;;;;;;;13.50;9.43;;;3.10;99.90;;;;;;5008972;28;20424;-73
2021/01/16 02:53:22;;;;;;;16.17;9.67;;;3.00;99.90;;;;;;4993769;28;20414;-72
2021/01/16 02:55:49;;;;;;;12.47;8.40;;;3.10;99.90;;;;;;5001978;28;20422;-72
2021/01/16 02:58:18;;;;;;;15.10;9.30;;;3.20;99.90;;;;;;4999151;28;20441;-74
2021/01/16 03:00:44;;;;;;;16.70;9.43;;;3.20;99.90;;;;;;5008038;28;20427;-73
2021/01/16 03:03:10;;;;;;;19.70;11.23;;;3.20;99.90;;;;;;4997451;28;20844;-72
2021/01/16 03:05:36;;;;;;;16.90;10.30;;;3.10;99.90;;;;;;5006778;28;20504;-72
2021/01/16 03:08:03;;;;;;;15.70;10.30;;;3.10;99.90;;;;;;5000715;28;20426;-72
2021/01/16 03:10:29;;;;;;;16.03;10.70;;;3.00;99.90;;;;;;5013012;28;20164;-72
2021/01/16 03:12:55;;;;;;;15.83;11.40;;;3.00;99.90;;;;;;5012638;28;20414;-74
2021/01/16 03:15:22;;;;;;;15.80;9.60;;;2.90;99.90;;;;;;5013036;28;20457;-73
2021/01/16 03:17:54;;;;;;;17.30;11.50;;;2.90;99.90;;;;;;5009882;28;20381;-72
2021/01/16 03:20:22;;;;;;;16.53;10.50;;;2.80;99.90;;;;;;4994796;28;20420;-72
2021/01/16 03:22:49;;;;;;;20.83;10.50;;;2.90;99.90;;;;;;5005366;28;20416;-73
2021/01/16 03:25:16;;;;;;;24.60;12.40;;;2.90;99.90;;;;;;4993670;28;20467;-72
2021/01/16 03:27:42;;;;;;;17.17;12.27;;;3.00;99.90;;;;;;4993650;28;20405;-72
2021/01/16 03:30:08;;;;;;;29.17;14.20;;;3.00;99.90;;;;;;4998679;28;20947;-72
2021/01/16 03:32:34;;;;;;;16.30;11.80;;;2.90;99.90;;;;;;5011851;28;20160;-74
2021/01/16 03:35:00;;;;;;;21.33;12.57;;;2.90;99.90;;;;;;5021978;28;21048;-74
2021/01/16 03:37:25;;;;;;;18.87;13.13;;;2.80;99.90;;;;;;5006564;28;20180;-72
2021/01/16 03:39:51;;;;;;;23.27;13.80;;;2.70;99.90;;;;;;5012780;28;20164;-72
2021/01/16 03:42:17;;;;;;;17.13;12.80;;;2.70;99.90;;;;;;5004544;28;20677;-72
2021/01/16 03:44:42;;;;;;;19.40;13.33;;;2.80;99.90;;;;;;4992300;28;20206;-73
2021/01/16 03:47:08;;;;;;;23.83;13.50;;;2.80;99.90;;;;;;4992920;28;20188;-72
2021/01/16 03:49:34;;;;;;;19.97;12.47;;;2.80;99.90;;;;;;4999214;28;20182;-74
2021/01/16 03:52:00;;;;;;;23.53;14.17;;;2.80;99.90;;;;;;5009597;28;20169;-73
2021/01/16 03:54:26;;;;;;;20.13;12.60;;;2.80;99.90;;;;;;4992859;28;20434;-74
2021/01/16 03:56:51;;;;;;;22.57;12.00;;;2.60;99.90;;;;;;4992963;28;20512;-72
2021/01/16 03:59:17;;;;;;;26.70;17.47;;;2.60;99.90;;;;;;5008026;28;20179;-72
2021/01/16 04:01:45;;;;;;;24.33;15.30;;;2.50;99.90;;;;;;5010521;28;20181;-73
2021/01/16 04:04:10;;;;;;;25.87;12.77;;;2.50;99.90;;;;;;5003934;28;20257;-72
2021/01/16 04:06:36;;;;;;;17.23;12.30;;;2.40;99.90;;;;;;4992753;28;20404;-74
2021/01/16 04:09:02;;;;;;;18.80;12.67;;;2.40;99.90;;;;;;5014500;28;20191;-72
2021/01/16 04:11:29;;;;;;;22.17;13.83;;;2.50;99.90;;;;;;5012084;28;20581;-72
2021/01/16 04:13:54;;;;;;;21.50;13.60;;;2.40;99.90;;;;;;5010355;28;20492;-74
2021/01/16 04:16:20;;;;;;;23.60;11.90;;;2.40;99.90;;;;;;5027486;28;20493;-72
2021/01/16 04:18:46;;;;;;;17.50;12.80;;;2.30;99.90;;;;;;5019253;28;20172;-72
2021/01/16 04:21:11;;;;;;;33.27;21.70;;;2.30;99.90;;;;;;5011346;28;20519;-72
2021/01/16 04:23:37;;;;;;;38.93;25.23;;;2.40;99.90;;;;;;5011664;28;20208;-72
2021/01/16 04:26:03;;;;;;;75.20;41.90;;;2.30;99.90;;;;;;5006293;28;20635;-73
2021/01/16 04:28:28;;;;;;;22.43;14.33;;;2.40;99.90;;;;;;5007715;28;20176;-72
2021/01/16 04:30:54;;;;;;;21.83;13.50;;;2.40;99.90;;;;;;4991565;28;20183;-73
2021/01/16 04:33:20;;;;;;;31.27;14.40;;;2.40;99.90;;;;;;5005126;28;20306;-73
2021/01/16 04:35:45;;;;;;;22.43;13.57;;;2.40;99.90;;;;;;4994820;28;20575;-73
2021/01/16 04:38:12;;;;;;;26.00;13.63;;;2.40;99.90;;;;;;5007666;28;20211;-72
2021/01/16 04:40:38;;;;;;;29.40;13.47;;;2.50;99.90;;;;;;4992346;28;20259;-73
2021/01/16 04:43:05;;;;;;;20.83;13.47;;;2.50;99.90;;;;;;4994867;28;20936;-72
2021/01/16 04:45:32;;;;;;;30.83;14.90;;;2.60;99.90;;;;;;5007647;28;20443;-73
2021/01/16 04:48:03;;;;;;;24.13;13.07;;;2.60;99.90;;;;;;4994091;28;20466;-73
2021/01/16 04:50:30;;;;;;;25.67;13.67;;;2.60;99.90;;;;;;4992208;28;20994;-73
2021/01/16 04:53:05;;;;;;;22.73;12.20;;;2.50;99.90;;;;;;5007783;28;20420;-72
2021/01/16 04:55:33;;;;;;;20.83;12.87;;;2.60;99.90;;;;;;4994777;28;20434;-73
2021/01/16 04:58:04;;;;;;;26.27;14.70;;;2.60;99.90;;;;;;5014320;28;20411;-74
2021/01/16 05:00:33;;;;;;;24.47;13.57;;;2.60;99.90;;;;;;5009121;28;20792;-72
2021/01/16 05:03:03;;;;;;;34.93;15.00;;;2.40;99.90;;;;;;4994732;28;20455;-72
2021/01/16 05:05:30;;;;;;;28.27;14.10;;;2.40;99.90;;;;;;5000204;28;20454;-73
2021/01/16 05:07:56;;;;;;;47.43;14.40;;;2.20;99.90;;;;;;5013720;28;20456;-72
2021/01/16 05:10:23;;;;;;;25.33;12.97;;;2.10;99.90;;;;;;5015248;28;20424;-73
2021/01/16 05:12:59;;;;;;;27.60;14.07;;;1.90;99.90;;;;;;5014477;28;20200;-72
2021/01/16 05:15:30;;;;;;;23.77;13.73;;;1.90;99.90;;;;;;5015432;28;20427;-72
2021/01/16 05:18:05;;;;;;;19.63;14.17;;;1.90;99.90;;;;;;5008782;28;20423;-73
2021/01/16 05:20:32;;;;;;;30.40;16.13;;;1.90;99.90;;;;;;5015148;28;20474;-72
2021/01/16 05:23:16;;;;;;;25.43;13.50;;;1.90;99.90;;;;;;5015102;28;20831;-72
2021/01/16 05:25:50;;;;;;;22.53;13.03;;;2.00;99.90;;;;;;5015266;28;20411;-73
2021/01/16 05:28:26;;;;;;;22.70;12.10;;;1.90;99.90;;;;;;5030082;28;20951;-73
2021/01/16 05:30:56;;;;;;;23.00;13.33;;;2.00;99.90;;;;;;4998712;28;20412;-72
2021/01/16 05:33:30;;;;;;;22.60;12.27;;;2.00;99.90;;;;;;5007610;28;20486;-73
2021/01/16 05:36:02;;;;;;;25.97;15.00;;;2.00;99.90;;;;;;4995440;28;20410;-73
2021/01/16 05:38:34;;;;;;;21.63;13.10;;;2.00;99.90;;;;;;5011883;28;20435;-73
2021/01/16 05:41:09;;;;;;;17.53;13.20;;;2.20;99.90;;;;;;5023284;28;20426;-72
2021/01/16 05:43:36;;;;;;;21.13;12.60;;;2.20;99.90;;;;;;5014818;28;20533;-73
2021/01/16 05:46:08;;;;;;;25.27;12.63;;;2.30;99.90;;;;;;5014693;28;20407;-73
2021/01/16 05:48:34;;;;;;;15.83;11.67;;;2.40;99.90;;;;;;5028215;28;20423;-72
2021/01/16 05:51:01;;;;;;;26.93;15.20;;;2.50;99.90;;;;;;5011181;28;20498;-72
2021/01/16 05:53:28;;;;;;;22.03;12.63;;;2.50;99.90;;;;;;5010560;28;20182;-72
2021/01/16 05:55:54;;;;;;;18.10;12.73;;;2.60;99.90;;;;;;4999829;28;20455;-72
2021/01/16 05:58:22;;;;;;;20.93;13.10;;;2.70;99.90;;;;;;5000991;28;20431;-74
2021/01/16 06:00:50;;;;;;;21.07;12.67;;;2.70;99.90;;;;;;4999669;28;20763;-73
2021/01/16 06:03:20;;;;;;;19.73;12.40;;;2.80;99.90;;;;;;4998308;28;20920;-72
2021/01/16 06:05:50;;;;;;;21.90;14.00;;;2.80;99.90;;;;;;5014319;28;20403;-72
2021/01/16 06:08:19;;;;;;;17.90;11.13;;;2.80;99.90;;;;;;5013456;28;20505;-73
2021/01/16 06:10:52;;;;;;;21.83;14.57;;;2.70;99.90;;;;;;5013337;28;20415;-72
2021/01/16 06:13:20;;;;;;;20.90;13.40;;;2.70;99.90;;;;;;5007880;28;20428;-73
2021/01/16 06:15:48;;;;;;;21.73;12.90;;;2.70;99.90;;;;;;4994628;28;20490;-73
2021/01/16 06:18:28;;;;;;;20.63;14.00;;;2.70;99.90;;;;;;5005435;28;20415;-73
2021/01/16 06:20:55;;;;;;;26.30;12.60;;;2.70;99.90;;;;;;5023490;28;20467;-73
2021/01/16 06:23:22;;;;;;;23.17;13.90;;;2.70;99.90;;;;;;4999281;28;20461;-73
2021/01/16 06:25:54;;;;;;;19.00;12.93;;;2.70;99.90;;;;;;5006329;28;22098;-73
2021/01/16 06:28:22;;;;;;;22.20;12.60;;;2.70;99.90;;;;;;5006172;28;20473;-73
2021/01/16 06:30:53;;;;;;;23.00;14.23;;;2.70;99.90;;;;;;5013235;28;20837;-73
2021/01/16 06:33:45;;;;;;;24.80;14.20;;;2.70;99.90;;;;;;4999559;28;20506;-73
2021/01/16 06:36:14;;;;;;;21.03;13.43;;;2.80;99.90;;;;;;4996937;28;20423;-73
2021/01/16 06:38:40;;;;;;;24.30;12.47;;;2.70;99.90;;;;;;5011983;28;20506;-73
2021/01/16 06:41:13;;;;;;;23.50;16.10;;;2.70;99.90;;;;;;5000991;28;20504;-73
2021/01/16 06:43:41;;;;;;;20.27;13.17;;;2.40;99.90;;;;;;5007077;28;20204;-73
2021/01/16 06:46:15;;;;;;;21.23;12.93;;;2.30;99.90;;;;;;5013411;28;20410;-72
2021/01/16 06:48:45;;;;;;;22.13;13.70;;;2.40;99.90;;;;;;4999582;28;20424;-71
2021/01/16 06:51:31;;;;;;;24.53;13.50;;;2.20;99.90;;;;;;5009058;28;20418;-73
2021/01/16 06:54:06;;;;;;;24.00;14.10;;;2.30;99.90;;;;;;5011822;28;20469;-73
2021/01/16 06:56:33;;;;;;;18.60;12.97;;;2.20;99.90;;;;;;5013667;28;20441;-73
2021/01/16 06:58:59;;;;;;;25.33;14.03;;;2.40;99.90;;;;;;5012739;28;20803;-73
2021/01/16 07:01:30;;;;;;;24.57;14.73;;;2.40;99.90;;;;;;5001836;28;20512;-72
2021/01/16 07:03:59;;;;;;;18.77;13.80;;;2.50;99.90;;;;;;4993482;28;20462;-72
2021/01/16 07:06:25;;;;;;;22.27;13.30;;;2.40;99.90;;;;;;4993579;28;20466;-72
2021/01/16 07:08:52;;;;;;;21.20;12.53;;;2.20;99.90;;;;;;5004234;28;20804;-73
2021/01/16 07:11:17;;;;;;;24.70;13.80;;;2.20;99.90;;;;;;5028167;28;20295;-72
2021/01/16 07:13:43;;;;;;;21.37;13.20;;;2.20;99.90;;;;;;5012785;28;20454;-72
2021/01/16 07:16:10;;;;;;;20.90;13.97;;;2.20;99.90;;;;;;4993476;28;20172;-73
2021/01/16 07:18:37;;;;;;;25.33;14.43;;;2.20;99.90;;;;;;5003634;28;20252;-72
2021/01/16 07:21:03;;;;;;;20.60;13.70;;;2.10;99.90;;;;;;5009929;28;20931;-73
2021/01/16 07:23:30;;;;;;;20.27;14.60;;;2.30;99.90;;;;;;5011266;28;20462;-73
2021/01/16 07:25:56;;;;;;;23.17;13.47;;;2.40;99.90;;;;;;4997326;28;20450;-72
2021/01/16 07:28:24;;;;;;;20.83;14.10;;;2.40;99.90;;;;;;5006688;28;20450;-73
2021/01/16 07:30:50;;;;;;;22.53;13.50;;;2.50;99.90;;;;;;4999395;28;20180;-72
2021/01/16 07:33:17;;;;;;;18.60;12.37;;;2.50;99.90;;;;;;5008413;28;20921;-73
2021/01/16 07:35:49;;;;;;;22.37;13.67;;;2.60;99.90;;;;;;5018835;28;20450;-73
2021/01/16 07:38:16;;;;;;;21.90;12.77;;;2.60;99.90;;;;;;5012685;28;20935;-73
2021/01/16 07:40:47;;;;;;;17.40;13.30;;;2.70;99.90;;;;;;5010101;28;20404;-73
2021/01/16 07:43:49;;;;;;;21.60;13.03;;;2.70;99.90;;;;;;5001672;28;20503;-73
2021/01/16 07:46:20;;;;;;;18.53;12.80;;;2.70;99.90;;;;;;5008881;28;20856;-72
2021/01/16 07:48:49;;;;;;;22.47;14.33;;;2.70;99.90;;;;;;5012585;28;20896;-72
2021/01/16 07:51:17;;;;;;;20.20;13.33;;;2.70;99.90;;;;;;4996856;28;20929;-72
2021/01/16 07:53:44;;;;;;;22.77;13.73;;;2.70;99.90;;;;;;5001395;28;20443;-72
2021/01/16 07:56:21;;;;;;;22.73;14.20;;;2.50;99.90;;;;;;5007480;28;20422;-73
2021/01/16 07:59:03;;;;;;;19.70;13.30;;;2.10;99.90;;;;;;5000561;28;20410;-73
2021/01/16 08:01:40;;;;;;;17.03;12.70;;;1.90;99.90;;;;;;5012293;28;20953;-74
2021/01/16 08:04:47;;;;;;;20.90;14.43;;;1.90;99.90;;;;;;5007907;28;20462;-73
2021/01/16 08:07:36;;;;;;;23.13;14.53;;;1.80;99.90;;;;;;4984280;28;20477;-72
2021/01/16 08:10:02;;;;;;;19.13;13.93;;;1.90;99.90;;;;;;4995411;28;20463;-73
2021/01/16 08:12:28;;;;;;;22.53;14.60;;;1.90;99.90;;;;;;5012214;28;20409;-73
2021/01/16 08:14:55;;;;;;;25.87;14.90;;;1.90;99.90;;;;;;5012027;28;20475;-73
2021/01/16 08:17:34;;;;;;;22.23;14.43;;;2.00;99.90;;;;;;5027474;28;20411;-73
2021/01/16 08:20:00;;;;;;;21.77;13.30;;;2.10;99.90;;;;;;5017789;28;20544;-74
2021/01/16 08:22:43;;;;;;;18.80;13.50;;;2.20;99.90;;;;;;5010868;28;20470;-74
2021/01/16 08:25:15;;;;;;;23.43;14.60;;;2.20;99.90;;;;;;5000872;28;20204;-73
2021/01/16 08:28:04;;;;;;;24.30;15.37;;;2.30;99.90;;;;;;4992693;28;20405;-73
2021/01/16 08:30:32;;;;;;;24.00;15.07;;;2.30;99.90;;;;;;5006445;28;20427;-73
2021/01/16 08:33:03;;;;;;;20.23;12.77;;;2.30;99.90;;;;;;4998619;28;20412;-73
2021/01/16 08:35:32;;;;;;;19.77;12.90;;;2.30;99.90;;;;;;5022459;28;20434;-73
2021/01/16 08:38:15;;;;;;;19.60;12.87;;;2.30;99.90;;;;;;5007726;28;20427;-73
2021/01/16 08:41:04;;;;;;;22.43;13.00;;;2.10;99.90;;;;;;5015125;28;20411;-73
2021/01/16 08:43:33;;;;;;;20.50;14.10;;;2.10;99.90;;;;;;5014147;28;20490;-73
2021/01/16 08:46:25;;;;;;;19.73;12.73;;;2.20;99.90;;;;;;5015606;28;20419;-73
2021/01/16 08:49:09;;;;;;;20.60;13.43;;;2.20;99.90;;;;;;5007000;28;20997;-73
2021/01/16 08:51:42;;;;;;;21.30;14.00;;;2.20;99.90;;;;;;5006004;28;20472;-73
2021/01/16 08:54:18;;;;;;;24.67;14.90;;;2.20;99.90;;;;;;5000506;28;20442;-73
2021/01/16 08:56:46;;;;;;;19.90;12.73;;;2.20;99.90;;;;;;5006536;28;20422;-73
2021/01/16 08:59:25;;;;;;;19.67;12.87;;;2.10;99.90;;;;;;4996119;28;20406;-74
2021/01/16 09:01:53;;;;;;;22.80;12.47;;;2.10;99.90;;;;;;4995785;28;20388;-73
2021/01/16 09:04:29;;;;;;;19.10;12.33;;;2.10;99.90;;;;;;5005694;28;20505;-73
2021/01/16 09:07:25;;;;;;;17.73;12.30;;;2.30;99.90;;;;;;5020279;28;20415;-73
2021/01/16 09:09:55;;;;;;;16.97;11.50;;;2.40;99.90;;;;;;4996400;28;20465;-73
2021/01/16 09:12:33;;;;;;;19.30;13.10;;;2.30;99.90;;;;;;5015443;28;20402;-73
2021/01/16 09:15:21;;;;;;;21.13;13.53;;;2.30;99.90;;;;;;5013958;28;20815;-73
2021/01/16 09:18:05;;;;;;;19.50;12.10;;;2.20;99.90;;;;;;5015317;28;20414;-73
2021/01/16 09:20:32;;;;;;;16.30;11.07;;;2.20;99.90;;;;;;5013178;28;20437;-72
2021/01/16 09:23:18;;;;;;;22.20;13.57;;;2.10;99.90;;;;;;4996976;28;20424;-72
2021/01/16 09:25:44;;;;;;;20.73;12.90;;;2.10;99.90;;;;;;5012092;28;20532;-72
2021/01/16 09:28:09;;;;;;;24.17;13.27;;;2.10;99.90;;;;;;5004518;28;20506;-72
2021/01/16 09:30:35;;;;;;;22.80;13.00;;;2.00;99.90;;;;;;5014835;28;20175;-72
2021/01/16 09:33:20;;;;;;;22.63;14.20;;;2.00;99.90;;;;;;5015109;28;20506;-73
2021/01/16 09:35:47;;;;;;;18.47;12.23;;;2.00;99.90;;;;;;5013580;28;20427;-73
2021/01/16 09:38:22;;;;;;;23.80;14.03;;;2.00;99.90;;;;;;5014955;28;20422;-73
2021/01/16 09:40:50;;;;;;;21.60;13.93;;;2.00;99.90;;;;;;5001838;28;20441;-73
2021/01/16 09:43:19;;;;;;;21.27;12.87;;;2.00;99.90;;;;;;4995331;28;20447;-73
2021/01/16 09:45:50;;;;;;;20.83;11.50;;;1.90;99.90;;;;;;4996375;28;20442;-72
2021/01/16 09:48:52;;;;;;;19.10;12.20;;;1.90;99.90;;;;;;4995053;28;20944;-72
2021/01/16 09:51:19;;;;;;;19.70;13.40;;;2.00;99.90;;;;;;5008300;28;20421;-72
2021/01/16 09:53:45;;;;;;;23.30;12.90;;;1.90;99.90;;;;;;5032791;28;20446;-73
2021/01/16 09:56:11;;;;;;;20.70;13.13;;;2.00;99.90;;;;;;5016965;28;20433;-72
2021/01/16 09:58:41;;;;;;;21.70;11.73;;;2.00;99.90;;;;;;5003608;28;20191;-72
2021/01/16 10:01:21;;;;;;;17.90;12.80;;;2.10;99.90;;;;;;5002863;28;20590;-72
2021/01/16 10:03:48;;;;;;;17.97;11.73;;;2.20;99.90;;;;;;5005496;28;20504;-73
2021/01/16 10:06:18;;;;;;;16.07;10.70;;;2.20;99.90;;;;;;5005316;28;20435;-72
2021/01/16 10:08:44;;;;;;;19.87;11.10;;;2.30;99.90;;;;;;5001207;28;20415;-72
2021/01/16 10:11:13;;;;;;;19.93;13.30;;;2.40;99.90;;;;;;4996391;28;20438;-73
2021/01/16 10:13:40;;;;;;;21.57;13.40;;;2.50;99.90;;;;;;5013760;28;20458;-72
2021/01/16 10:16:10;;;;;;;24.47;13.30;;;2.60;99.90;;;;;;5013854;28;20962;-72
2021/01/16 10:18:38;;;;;;;19.60;12.47;;;2.60;99.90;;;;;;5010453;28;20438;-72
2021/01/16 10:21:12;;;;;;;21.70;12.10;;;2.60;99.90;;;;;;5005447;28;20440;-73
2021/01/16 10:23:43;;;;;;;17.00;12.00;;;2.70;99.90;;;;;;5022515;28;20522;-73
2021/01/16 10:26:16;;;;;;;22.93;11.40;;;2.70;99.90;;;;;;4994581;28;20487;-73
2021/01/16 10:28:48;;;;;;;20.63;12.50;;;2.70;99.90;;;;;;4998983;28;20443;-73
2021/01/16 10:31:14;;;;;;;22.30;11.40;;;2.90;99.90;;;;;;5002500;28;20533;-74
2021/01/16 10:33:44;;;;;;;21.13;10.90;;;3.00;99.90;;;;;;5009930;28;20462;-73
2021/01/16 10:36:15;;;;;;;19.33;11.93;;;2.90;99.90;;;;;;5007629;28;20446;-74
2021/01/16 10:38:48;;;;;;;21.07;13.27;;;2.90;99.90;;;;;;4996212;28;20438;-72
2021/01/16 10:41:19;;;;;;;20.60;10.53;;;2.90;99.90;;;;;;5003951;28;20439;-73
2021/01/16 10:43:45;;;;;;;16.43;9.83;;;2.90;99.90;;;;;;5009186;28;20466;-74
2021/01/16 10:46:22;;;;;;;22.33;11.83;;;2.80;99.90;;;;;;5000923;28;20497;-73
2021/01/16 10:48:48;;;;;;;15.33;11.40;;;2.70;99.90;;;;;;5003916;28;20442;-73
2021/01/16 10:51:13;;;;;;;16.40;11.20;;;2.80;99.90;;;;;;5027616;28;20466;-73
2021/01/16 10:53:41;;;;;;;16.83;10.30;;;2.80;99.90;;;;;;5019532;28;20441;-72
2021/01/16 10:56:23;;;;;;;14.60;11.33;;;2.80;99.90;;;;;;5033095;28;20171;-73
2021/01/16 10:58:49;;;;;;;15.07;11.70;;;2.80;99.90;;;;;;4993542;28;20408;-72
2021/01/16 11:01:48;;;;;;;16.13;11.50;;;2.70;99.90;;;;;;5007401;28;20785;-73
2021/01/16 11:04:41;;;;;;;13.70;10.23;;;2.60;99.90;;;;;;5028941;28;20470;-73
2021/01/16 11:07:09;;;;;;;18.20;11.63;;;2.70;99.90;;;;;;5029914;28;20422;-73
2021/01/16 11:09:35;;;;;;;18.03;11.20;;;2.70;99.90;;;;;;5033110;28;20435;-73
2021/01/16 11:12:05;;;;;;;17.57;10.63;;;2.70;99.90;;;;;;5013211;28;20417;-73
2021/01/16 11:14:42;;;;;;;19.73;10.03;;;2.70;99.90;;;;;;5011971;28;20199;-73
2021/01/16 11:17:11;;;;;;;19.07;13.07;;;2.70;99.90;;;;;;5007926;28;20517;-72
2021/01/16 11:19:43;;;;;;;20.13;12.20;;;2.70;99.90;;;;;;5014350;28;20519;-72
2021/01/16 11:22:11;;;;;;;19.90;10.93;;;2.70;99.90;;;;;;4997224;28;20810;-72
2021/01/16 11:24:54;;;;;;;19.60;11.50;;;2.80;99.90;;;;;;5009776;28;20492;-72
2021/01/16 11:27:21;;;;;;;18.97;11.80;;;2.80;99.90;;;;;;5012771;28;20421;-73
2021/01/16 11:29:48;;;;;;;17.03;10.80;;;2.80;99.90;;;;;;5012507;28;20417;-73
2021/01/16 11:32:22;;;;;;;18.10;11.87;;;2.70;99.90;;;;;;5013582;28;20493;-72
2021/01/16 11:35:05;;;;;;;17.63;11.30;;;2.90;99.90;;;;;;5011822;28;20820;-73
2021/01/16 11:37:46;;;;;;;17.90;11.80;;;2.80;99.90;;;;;;5007259;28;20509;-73
2021/01/16 11:40:31;;;;;;;17.53;10.80;;;2.80;99.90;;;;;;4999864;28;21028;-73
2021/01/16 11:43:07;;;;;;;19.10;11.30;;;2.90;99.90;;;;;;4991666;28;20936;-73
2021/01/16 11:45:33;;;;;;;18.10;12.20;;;2.90;99.90;;;;;;4993002;28;20469;-73
2021/01/16 11:48:00;;;;;;;18.60;11.80;;;2.90;99.90;;;;;;5002481;28;20450;-73
2021/01/16 11:50:37;;;;;;;21.97;14.37;;;3.00;99.90;;;;;;5011330;28;20500;-73
2021/01/16 11:53:12;;;;;;;20.47;12.90;;;3.10;99.90;;;;;;5027524;28;20421;-72
2021/01/16 11:55:38;;;;;;;16.70;11.90;;;2.90;99.90;;;;;;5012119;28;20437;-72
2021/01/16 11:58:04;;;;;;;16.37;10.30;;;2.70;99.90;;;;;;5001162;28;20488;-72
2021/01/16 12:00:31;;;;;;;19.93;11.17;;;2.70;99.90;;;;;;5007821;28;20445;-72
2021/01/16 12:02:58;;;;;;;18.73;11.47;;;2.70;99.90;;;;;;5007967;28;20590;-72
2021/01/16 12:05:25;;;;;;;18.63;10.90;;;2.90;99.90;;;;;;5011022;28;20495;-73
2021/01/16 12:07:57;;;;;;;17.60;11.30;;;3.00;99.90;;;;;;5008916;28;20777;-73
2021/01/16 12:10:25;;;;;;;17.93;10.73;;;2.90;99.90;;;;;;4990853;28;20416;-72
2021/01/16 12:12:51;;;;;;;14.27;10.40;;;2.80;99.90;;;;;;4992465;28;20550;-73
2021/01/16 12:15:24;;;;;;;12.40;9.70;;;3.00;99.90;;;;;;5004316;28;20862;-73
2021/01/16 12:17:51;;;;;;;16.30;9.97;;;2.90;99.90;;;;;;4997834;28;20960;-72
2021/01/16 12:20:18;;;;;;;12.33;9.60;;;3.10;99.90;;;;;;5000132;28;20439;-71
2021/01/16 12:22:49;;;;;;;14.03;10.17;;;3.60;99.90;;;;;;5017126;28;20457;-72
2021/01/16 12:25:16;;;;;;;13.67;9.43;;;3.90;99.90;;;;;;5007032;28;20475;-73
2021/01/16 12:27:52;;;;;;;16.43;9.93;;;4.20;99.90;;;;;;5014465;28;20481;-72
2021/01/16 12:30:19;;;;;;;12.30;8.80;;;4.20;99.90;;;;;;5009162;28;20923;-72
2021/01/16 12:32:45;;;;;;;14.57;8.80;;;4.30;99.90;;;;;;5010600;28;20450;-72
2021/01/16 12:35:13;;;;;;;14.20;9.50;;;4.50;99.90;;;;;;5006483;28;20483;-73
2021/01/16 12:37:41;;;;;;;11.20;8.73;;;4.40;99.90;;;;;;5023413;28;20558;-73
2021/01/16 12:40:19;;;;;;;15.10;9.63;;;4.30;99.90;;;;;;5008814;28;20514;-73
2021/01/16 12:42:46;;;;;;;17.03;10.60;;;4.10;99.90;;;;;;5021848;28;20436;-73
2021/01/16 12:45:19;;;;;;;17.50;10.80;;;3.90;99.90;;;;;;5001093;28;20469;-73
2021/01/16 12:47:48;;;;;;;26.90;15.23;;;3.70;99.90;;;;;;4998799;28;20439;-73
2021/01/16 12:50:14;;;;;;;27.33;14.00;;;3.70;99.90;;;;;;4992849;28;20411;-73
2021/01/16 12:52:53;;;;;;;24.53;13.50;;;3.60;99.90;;;;;;5011841;28;20477;-73
2021/01/16 12:55:21;;;;;;;19.87;11.50;;;3.50;99.90;;;;;;5011268;28;20450;-73